createdAt,value
2018-03-01T00:01:44.280Z,80.65
2018-03-01T00:02:44.296Z,80.56
2018-03-01T00:03:58.953Z,80.56
2018-03-01T00:04:44.317Z,80.65
2018-03-01T00:05:44.312Z,80.65
2018-03-01T00:06:44.329Z,81.03
2018-03-01T00:07:44.334Z,80.93
2018-03-01T00:08:44.335Z,81.03
2018-03-01T00:09:44.345Z,81.78
2018-03-01T00:10:44.355Z,81.03
2018-03-01T00:11:44.369Z,81.78
2018-03-01T00:12:44.365Z,80.84
2018-03-01T00:13:44.380Z,81.41
2018-03-01T00:14:44.381Z,81.5
2018-03-01T00:15:44.398Z,81.78
2018-03-01T00:16:44.409Z,81.88
2018-03-01T00:17:44.408Z,81.69
2018-03-01T00:18:44.431Z,81.59
2018-03-01T00:19:59.084Z,81.69
2018-03-01T00:20:44.443Z,81.69
2018-03-01T00:22:44.451Z,81.88
2018-03-01T00:23:44.454Z,81.78
2018-03-01T00:24:44.475Z,81.88
2018-03-01T00:25:44.484Z,81.41
2018-03-01T00:26:44.236Z,81.69
2018-03-01T00:27:44.482Z,81.69
2018-03-01T00:28:44.493Z,81.22
2018-03-01T00:29:44.241Z,81.5
2018-03-01T00:30:44.520Z,81.59
2018-03-01T00:31:44.522Z,81.97
2018-03-01T00:32:44.529Z,81.88
2018-03-01T00:33:44.531Z,82.07
2018-03-01T00:34:44.542Z,82.07
2018-03-01T00:35:59.210Z,81.69
2018-03-01T00:37:44.583Z,82.07
2018-03-01T00:38:44.316Z,82.44
2018-03-01T00:39:44.590Z,82.16
2018-03-01T00:41:44.341Z,82.07
2018-03-01T00:42:44.608Z,82.16
2018-03-01T00:44:44.627Z,82.63
2018-03-01T00:45:44.633Z,82.63
2018-03-01T00:46:44.378Z,82.82
2018-03-01T00:47:44.640Z,81.88
2018-03-01T00:48:44.664Z,82.25
2018-03-01T00:49:44.400Z,82.63
2018-03-01T00:50:44.670Z,82.25
2018-03-01T00:51:59.336Z,82.35
2018-03-01T00:52:44.689Z,82.44
2018-03-01T00:53:44.432Z,82.54
2018-03-01T00:54:44.696Z,82.54
2018-03-01T00:55:44.706Z,82.63
2018-03-01T00:56:44.460Z,82.31
2018-03-01T00:57:44.728Z,82.4
2018-03-01T00:58:44.737Z,82.63
2018-03-01T00:59:44.735Z,82.54
2018-03-01T01:00:44.743Z,82.73
2018-03-01T01:01:44.753Z,82.73
2018-03-01T01:03:44.769Z,82.54
2018-03-01T01:04:44.780Z,82.87
2018-03-01T01:05:44.532Z,82.87
2018-03-01T01:06:59.453Z,82.54
2018-03-01T01:07:44.798Z,82.63
2018-03-01T01:08:44.809Z,82.63
2018-03-01T01:09:44.823Z,82.54
2018-03-01T01:10:44.826Z,82.78
2018-03-01T01:11:44.832Z,82.59
2018-03-01T01:12:44.838Z,82.87
2018-03-01T01:13:44.846Z,83.15
2018-03-01T01:14:44.861Z,83.06
2018-03-01T01:15:44.863Z,82.97
2018-03-01T01:16:44.888Z,83.06
2018-03-01T01:17:44.889Z,83.34
2018-03-01T01:18:44.895Z,83.06
2018-03-01T01:19:44.904Z,83.06
2018-03-01T01:20:44.922Z,83.06
2018-03-01T01:21:44.916Z,82.97
2018-03-01T01:22:44.927Z,83.06
2018-03-01T01:23:44.930Z,83.34
2018-03-01T01:24:45.035Z,83.25
2018-03-01T01:25:44.959Z,83.62
2018-03-01T01:26:44.952Z,83.53
2018-03-01T01:27:44.964Z,83.62
2018-03-01T01:28:44.720Z,83.62
2018-03-01T01:29:44.986Z,83.91
2018-03-01T01:30:44.996Z,83.72
2018-03-01T01:31:45.002Z,84.09
2018-03-01T01:32:45.005Z,84
2018-03-01T01:33:45.022Z,84
2018-03-01T01:34:45.028Z,83.81
2018-03-01T01:35:45.027Z,83.62
2018-03-01T01:36:45.044Z,84.47
2018-03-01T01:37:45.037Z,84.47
2018-03-01T01:38:59.703Z,84.38
2018-03-01T01:39:45.060Z,84.47
2018-03-01T01:40:45.062Z,84.09
2018-03-01T01:41:45.069Z,84.56
2018-03-01T01:42:45.087Z,84.28
2018-03-01T01:43:45.097Z,84.47
2018-03-01T01:44:45.093Z,84.38
2018-03-01T01:45:45.117Z,84.38
2018-03-01T01:46:45.107Z,84.19
2018-03-01T01:47:45.129Z,84.28
2018-03-01T01:48:45.122Z,84.47
2018-03-01T01:49:45.144Z,84.19
2018-03-01T01:50:45.138Z,84.47
2018-03-01T01:52:45.156Z,84.75
2018-03-01T01:53:45.166Z,84.56
2018-03-01T01:54:59.828Z,85.04
2018-03-01T01:55:45.222Z,84.85
2018-03-01T01:56:45.204Z,84.28
2018-03-01T01:57:45.207Z,84.85
2018-03-01T01:58:45.206Z,84.85
2018-03-01T01:59:45.307Z,85.13
2018-03-01T02:00:45.225Z,84.47
2018-03-01T02:02:45.232Z,84.94
2018-03-01T02:04:45.293Z,84.94
2018-03-01T02:05:45.262Z,85.04
2018-03-01T02:06:45.275Z,85.04
2018-03-01T02:07:45.275Z,85.04
2018-03-01T02:08:45.280Z,85.04
2018-03-01T02:09:45.290Z,84.85
2018-03-01T02:10:59.955Z,85.04
2018-03-01T02:12:45.311Z,85.6
2018-03-01T02:14:45.334Z,85.6
2018-03-01T02:15:45.332Z,85.6
2018-03-01T02:16:45.347Z,85.41
2018-03-01T02:17:45.358Z,85.98
2018-03-01T02:18:45.356Z,85.7
2018-03-01T02:19:45.369Z,85.79
2018-03-01T02:20:45.119Z,85.88
2018-03-01T02:21:45.398Z,85.88
2018-03-01T02:22:45.397Z,85.98
2018-03-01T02:23:45.394Z,85.7
2018-03-01T02:24:45.417Z,85.7
2018-03-01T02:25:45.413Z,86.07
2018-03-01T02:27:00.078Z,85.79
2018-03-01T02:27:45.435Z,85.7
2018-03-01T02:28:45.443Z,85.98
2018-03-01T02:29:45.452Z,86.17
2018-03-01T02:30:45.453Z,86.64
2018-03-01T02:31:45.457Z,86.64
2018-03-01T02:32:45.209Z,86.54
2018-03-01T02:33:45.488Z,86.73
2018-03-01T02:34:45.496Z,86.45
2018-03-01T02:35:45.492Z,86.26
2018-03-01T02:36:45.507Z,86.83
2018-03-01T02:37:45.504Z,87.2
2018-03-01T02:38:45.510Z,87.58
2018-03-01T02:39:45.526Z,87.39
2018-03-01T02:40:45.532Z,87.02
2018-03-01T02:42:00.196Z,87.2
2018-03-01T02:43:45.548Z,87.86
2018-03-01T02:44:45.561Z,87.77
2018-03-01T02:46:45.581Z,87.86
2018-03-01T02:47:45.588Z,88.24
2018-03-01T02:48:45.588Z,87.68
2018-03-01T02:49:45.604Z,87.77
2018-03-01T02:50:45.617Z,87.96
2018-03-01T02:51:45.612Z,88.15
2018-03-01T02:52:45.617Z,88.71
2018-03-01T02:53:45.632Z,88.81
2018-03-01T02:54:45.636Z,88.15
2018-03-01T02:55:45.759Z,88.52
2018-03-01T02:56:45.654Z,88.71
2018-03-01T02:57:45.660Z,88.62
2018-03-01T02:58:45.678Z,88.43
2018-03-01T02:59:45.677Z,88.81
2018-03-01T03:00:45.687Z,88.81
2018-03-01T03:01:45.686Z,88.9
2018-03-01T03:02:45.706Z,88.81
2018-03-01T03:04:45.707Z,89.09
2018-03-01T03:05:45.714Z,88.9
2018-03-01T03:06:45.726Z,88.9
2018-03-01T03:07:45.736Z,89.28
2018-03-01T03:08:45.742Z,88.81
2018-03-01T03:09:45.751Z,89
2018-03-01T03:10:45.761Z,88.62
2018-03-01T03:11:45.764Z,89.65
2018-03-01T03:12:45.784Z,89.56
2018-03-01T03:14:00.437Z,89.37
2018-03-01T03:14:45.788Z,89.56
2018-03-01T03:15:45.795Z,89.75
2018-03-01T03:16:45.803Z,89.84
2018-03-01T03:17:45.823Z,89.65
2018-03-01T03:18:45.820Z,89.75
2018-03-01T03:19:45.840Z,89.84
2018-03-01T03:20:45.934Z,90.12
2018-03-01T03:21:45.847Z,90.22
2018-03-01T03:22:45.591Z,90.12
2018-03-01T03:23:45.864Z,90.5
2018-03-01T03:24:45.876Z,90.41
2018-03-01T03:25:45.879Z,90.5
2018-03-01T03:26:45.887Z,90.31
2018-03-01T03:27:45.885Z,90.31
2018-03-01T03:28:45.897Z,90.12
2018-03-01T03:30:00.562Z,90.12
2018-03-01T03:30:45.914Z,90.12
2018-03-01T03:31:45.919Z,90.5
2018-03-01T03:32:45.935Z,89.94
2018-03-01T03:33:45.943Z,90.41
2018-03-01T03:34:45.936Z,90.5
2018-03-01T03:35:45.952Z,90.69
2018-03-01T03:36:45.952Z,90.12
2018-03-01T03:37:45.709Z,90.78
2018-03-01T03:38:45.978Z,90.69
2018-03-01T03:39:45.989Z,90.41
2018-03-01T03:40:45.981Z,90.59
2018-03-01T03:41:46.003Z,90.22
2018-03-01T03:42:46.006Z,90.88
2018-03-01T03:43:46.008Z,90.59
2018-03-01T03:44:46.011Z,90.69
2018-03-01T03:46:00.682Z,91.25
2018-03-01T03:46:46.030Z,91.16
2018-03-01T03:47:46.041Z,91.16
2018-03-01T03:48:46.046Z,90.97
2018-03-01T03:49:45.793Z,91.16
2018-03-01T03:50:46.067Z,91.35
2018-03-01T03:51:46.063Z,91.72
2018-03-01T03:52:46.073Z,91.06
2018-03-01T03:54:46.097Z,91.35
2018-03-01T03:55:46.101Z,91.53
2018-03-01T03:57:46.110Z,91.53
2018-03-01T03:58:46.130Z,91.53
2018-03-01T03:59:46.135Z,91.35
2018-03-01T04:02:00.806Z,91.53
2018-03-01T04:02:46.152Z,91.53
2018-03-01T04:03:46.166Z,91.44
2018-03-01T04:04:46.167Z,91.44
2018-03-01T04:05:46.174Z,91.53
2018-03-01T04:06:46.181Z,91.35
2018-03-01T04:07:46.034Z,91.63
2018-03-01T04:08:46.207Z,91.82
2018-03-01T04:09:45.950Z,91.91
2018-03-01T04:10:46.220Z,92.19
2018-03-01T04:11:46.217Z,92.29
2018-03-01T04:14:46.238Z,92.19
2018-03-01T04:15:46.248Z,92.38
2018-03-01T04:17:00.913Z,92
2018-03-01T04:17:46.003Z,91.72
2018-03-01T04:18:46.010Z,92.38
2018-03-01T04:19:46.020Z,92.47
2018-03-01T04:20:46.286Z,92.19
2018-03-01T04:21:46.290Z,91.63
2018-03-01T04:22:46.297Z,92.38
2018-03-01T04:23:46.054Z,92.29
2018-03-01T04:24:46.327Z,92.66
2018-03-01T04:25:46.340Z,92.38
2018-03-01T04:27:46.336Z,92.85
2018-03-01T04:28:46.355Z,92.47
2018-03-01T04:29:46.359Z,93.04
2018-03-01T04:30:46.368Z,92.85
2018-03-01T04:31:46.375Z,92.76
2018-03-01T04:32:46.380Z,93.42
2018-03-01T04:33:46.397Z,93.23
2018-03-01T04:34:46.400Z,92.76
2018-03-01T04:35:46.396Z,92.85
2018-03-01T04:36:46.410Z,93.32
2018-03-01T04:37:46.424Z,93.23
2018-03-01T04:38:46.433Z,93.32
2018-03-01T04:39:46.438Z,93.32
2018-03-01T04:41:46.444Z,93.51
2018-03-01T04:42:46.461Z,93.32
2018-03-01T04:43:46.198Z,93.42
2018-03-01T04:44:46.470Z,92.95
2018-03-01T04:45:46.472Z,93.13
2018-03-01T04:46:46.490Z,93.61
2018-03-01T04:47:46.502Z,93.61
2018-03-01T04:49:01.156Z,93.61
2018-03-01T04:49:46.502Z,93.79
2018-03-01T04:51:46.265Z,93.79
2018-03-01T04:52:46.537Z,93.89
2018-03-01T04:53:46.274Z,93.98
2018-03-01T04:55:46.632Z,93.79
2018-03-01T04:56:46.559Z,94.36
2018-03-01T04:57:46.563Z,94.08
2018-03-01T04:58:46.576Z,94.17
2018-03-01T04:59:46.584Z,94.17
2018-03-01T05:00:46.595Z,94.27
2018-03-01T05:01:46.599Z,94.45
2018-03-01T05:02:46.603Z,94.27
2018-03-01T05:03:46.356Z,94.17
2018-03-01T05:05:01.271Z,94.17
2018-03-01T05:06:46.376Z,94.55
2018-03-01T05:07:46.377Z,94.64
2018-03-01T05:08:46.386Z,94.64
2018-03-01T05:09:46.397Z,94.36
2018-03-01T05:10:46.662Z,94.17
2018-03-01T05:12:46.678Z,94.17
2018-03-01T05:13:46.785Z,94.36
2018-03-01T05:14:46.688Z,93.98
2018-03-01T05:15:46.693Z,94.45
2018-03-01T05:16:46.700Z,94.83
2018-03-01T05:17:46.715Z,94.83
2018-03-01T05:18:46.720Z,94.93
2018-03-01T05:19:46.737Z,94.93
2018-03-01T05:21:01.391Z,95.11
2018-03-01T05:21:46.735Z,95.02
2018-03-01T05:22:46.751Z,94.93
2018-03-01T05:23:46.756Z,95.11
2018-03-01T05:24:46.762Z,95.11
2018-03-01T05:26:46.789Z,94.55
2018-03-01T05:27:46.781Z,94.64
2018-03-01T05:28:46.791Z,94.93
2018-03-01T05:29:46.547Z,94.74
2018-03-01T05:30:46.813Z,95.11
2018-03-01T05:31:46.812Z,95.11
2018-03-01T05:32:46.826Z,94.64
2018-03-01T05:33:46.841Z,95.02
2018-03-01T05:34:46.832Z,95.11
2018-03-01T05:35:46.850Z,95.3
2018-03-01T05:37:01.508Z,95.49
2018-03-01T05:37:46.602Z,95.49
2018-03-01T05:38:46.865Z,95.49
2018-03-01T05:39:46.872Z,95.49
2018-03-01T05:41:46.889Z,95.49
2018-03-01T05:42:46.892Z,95.59
2018-03-01T05:43:46.900Z,95.59
2018-03-01T05:44:46.916Z,95.4
2018-03-01T05:45:46.661Z,95.68
2018-03-01T05:46:46.920Z,95.49
2018-03-01T05:48:46.946Z,95.3
2018-03-01T05:49:46.950Z,95.49
2018-03-01T05:50:46.955Z,95.49
2018-03-01T05:52:01.617Z,95.49
2018-03-01T05:52:46.779Z,95.59
2018-03-01T05:53:47.122Z,95.68
2018-03-01T05:54:46.981Z,95.77
2018-03-01T05:55:46.730Z,95.49
2018-03-01T05:56:47.005Z,95.49
2018-03-01T05:57:47.010Z,95.87
2018-03-01T05:58:46.757Z,95.02
2018-03-01T05:59:47.024Z,95.21
2018-03-01T06:00:46.776Z,95.68
2018-03-01T06:01:47.032Z,95.59
2018-03-01T06:02:47.059Z,95.4
2018-03-01T06:03:47.060Z,95.21
2018-03-01T06:04:47.064Z,94.93
2018-03-01T06:05:47.072Z,95.49
2018-03-01T06:06:47.080Z,95.4
2018-03-01T06:07:47.084Z,95.49
2018-03-01T06:08:47.096Z,95.68
2018-03-01T06:09:47.095Z,95.49
2018-03-01T06:10:47.096Z,95.59
2018-03-01T06:11:47.118Z,95.49
2018-03-01T06:12:47.112Z,95.21
2018-03-01T06:13:47.121Z,95.4
2018-03-01T06:14:47.128Z,95.49
2018-03-01T06:15:47.146Z,95.3
2018-03-01T06:16:47.259Z,95.4
2018-03-01T06:17:47.153Z,95.49
2018-03-01T06:18:47.172Z,94.83
2018-03-01T06:19:47.170Z,95.3
2018-03-01T06:20:47.183Z,95.68
2018-03-01T06:21:47.180Z,95.3
2018-03-01T06:22:47.182Z,95.59
2018-03-01T06:24:01.851Z,95.3
2018-03-01T06:26:47.233Z,95.59
2018-03-01T06:27:47.227Z,95.02
2018-03-01T06:28:47.244Z,95.11
2018-03-01T06:29:47.250Z,95.02
2018-03-01T06:30:47.261Z,94.74
2018-03-01T06:31:47.260Z,94.36
2018-03-01T06:32:47.277Z,93.79
2018-03-01T06:33:47.288Z,93.89
2018-03-01T06:34:47.294Z,93.7
2018-03-01T06:35:47.042Z,93.13
2018-03-01T06:36:47.322Z,93.32
2018-03-01T06:37:47.058Z,92.76
2018-03-01T06:38:47.329Z,92.38
2018-03-01T06:40:01.992Z,92.57
2018-03-01T06:40:47.349Z,91.82
2018-03-01T06:41:47.357Z,91.44
2018-03-01T06:42:47.366Z,91.25
2018-03-01T06:43:47.375Z,91.25
2018-03-01T06:45:47.140Z,90.59
2018-03-01T06:46:47.409Z,90.59
2018-03-01T06:47:47.423Z,90.22
2018-03-01T06:48:47.439Z,90.22
2018-03-01T06:49:47.452Z,90.12
2018-03-01T06:50:47.456Z,89.75
2018-03-01T06:51:47.476Z,89.65
2018-03-01T06:52:47.488Z,89.18
2018-03-01T06:53:47.504Z,89.09
2018-03-01T06:56:02.177Z,87.77
2018-03-01T06:56:47.541Z,87.68
2018-03-01T06:57:47.549Z,87.77
2018-03-01T06:58:47.306Z,87.77
2018-03-01T06:59:47.574Z,87.77
2018-03-01T07:00:47.605Z,87.3
2018-03-01T07:02:47.617Z,86.4
2018-03-01T07:03:47.632Z,86.11
2018-03-01T07:04:47.648Z,85.93
2018-03-01T07:05:47.736Z,85.46
2018-03-01T07:07:47.685Z,85.74
2018-03-01T07:08:47.700Z,85.17
2018-03-01T07:09:47.724Z,85.27
2018-03-01T07:10:47.729Z,84.52
2018-03-01T07:12:02.406Z,84.7
2018-03-01T07:12:47.772Z,84.8
2018-03-01T07:13:47.784Z,84.99
2018-03-01T07:14:47.785Z,84.89
2018-03-01T07:15:47.812Z,84.42
2018-03-01T07:16:47.825Z,84.52
2018-03-01T07:17:47.831Z,83.67
2018-03-01T07:18:47.858Z,83.67
2018-03-01T07:19:47.878Z,83.01
2018-03-01T07:20:47.881Z,82.92
2018-03-01T07:21:47.892Z,82.92
2018-03-01T07:22:47.908Z,82.54
2018-03-01T07:24:47.938Z,82.25
2018-03-01T07:25:47.954Z,81.97
2018-03-01T07:27:02.639Z,81.5
2018-03-01T07:27:48.087Z,81.5
2018-03-01T07:28:47.997Z,80.46
2018-03-01T07:29:48.023Z,80.08
2018-03-01T07:30:48.039Z,80.08
2018-03-01T07:31:48.053Z,80.27
2018-03-01T07:32:48.061Z,80.18
2018-03-01T07:33:48.088Z,79.99
2018-03-01T07:34:48.098Z,80.08
2018-03-01T07:36:48.119Z,79.52
2018-03-01T07:37:48.137Z,79.05
2018-03-01T07:38:48.167Z,78.67
2018-03-01T07:39:48.179Z,78.39
2018-03-01T07:40:48.186Z,78.11
2018-03-01T07:41:48.193Z,78.3
2018-03-01T07:42:48.209Z,78.58
2018-03-01T07:43:48.231Z,77.67
2018-03-01T07:44:48.240Z,77.73
2018-03-01T07:45:48.272Z,77.11
2018-03-01T07:46:48.282Z,76.73
2018-03-01T07:47:48.036Z,77.07
2018-03-01T07:48:48.323Z,76.7
2018-03-01T07:49:48.321Z,76.32
2018-03-01T07:50:48.339Z,76.51
2018-03-01T07:51:48.351Z,76.51
2018-03-01T07:52:48.361Z,76.41
2018-03-01T07:53:48.374Z,76.04
2018-03-01T07:54:48.393Z,76.22
2018-03-01T07:56:48.416Z,76.04
2018-03-01T07:57:48.174Z,76.17
2018-03-01T07:59:03.102Z,75.79
2018-03-01T07:59:48.465Z,75.51
2018-03-01T08:00:48.471Z,75.04
2018-03-01T08:01:48.501Z,74.38
2018-03-01T08:02:48.500Z,73.81
2018-03-01T08:03:48.539Z,73.81
2018-03-01T08:04:48.540Z,74.05
2018-03-01T08:05:48.538Z,74.34
2018-03-01T08:06:48.559Z,74.43
2018-03-01T08:07:48.581Z,74.47
2018-03-01T08:08:48.604Z,74.66
2018-03-01T08:09:48.601Z,74.19
2018-03-01T08:10:48.616Z,73.91
2018-03-01T08:11:48.627Z,74.1
2018-03-01T08:13:48.386Z,73.62
2018-03-01T08:15:03.322Z,74.1
2018-03-01T08:15:48.685Z,73.91
2018-03-01T08:16:48.473Z,74
2018-03-01T08:17:48.697Z,73.91
2018-03-01T08:19:48.735Z,73.25
2018-03-01T08:20:48.737Z,73.62
2018-03-01T08:22:48.775Z,72.87
2018-03-01T08:23:48.784Z,72.96
2018-03-01T08:24:48.799Z,72.77
2018-03-01T08:25:48.802Z,72.58
2018-03-01T08:26:48.815Z,72.58
2018-03-01T08:27:48.835Z,72.58
2018-03-01T08:28:48.844Z,72.58
2018-03-01T08:29:48.851Z,72.02
2018-03-01T08:31:03.521Z,71.64
2018-03-01T08:31:48.880Z,71.64
2018-03-01T08:32:48.893Z,71.64
2018-03-01T08:33:48.646Z,72.02
2018-03-01T08:34:48.913Z,71.36
2018-03-01T08:35:48.930Z,71.36
2018-03-01T08:36:48.953Z,71.45
2018-03-01T08:37:48.956Z,71.36
2018-03-01T08:38:48.961Z,71.08
2018-03-01T08:39:48.973Z,70.51
2018-03-01T08:40:49.002Z,70.23
2018-03-01T08:41:49.006Z,70.7
2018-03-01T08:42:49.098Z,70.04
2018-03-01T08:43:49.025Z,70.14
2018-03-01T08:44:49.054Z,70.7
2018-03-01T08:45:48.792Z,70.7
2018-03-01T08:47:03.725Z,70.23
2018-03-01T08:47:49.079Z,70.79
2018-03-01T08:48:49.159Z,70.04
2018-03-01T08:49:49.108Z,70.23
2018-03-01T08:50:49.124Z,70.04
2018-03-01T08:51:49.136Z,70.04
2018-03-01T08:52:49.147Z,70.14
2018-03-01T08:53:49.159Z,70.04
2018-03-01T08:54:49.164Z,69.67
2018-03-01T08:56:49.192Z,69.48
2018-03-01T08:57:48.946Z,69.57
2018-03-01T08:58:49.213Z,69.85
2018-03-01T08:59:49.244Z,69.57
2018-03-01T09:00:49.245Z,69.19
2018-03-01T09:02:03.908Z,69.1
2018-03-01T09:03:49.280Z,68.44
2018-03-01T09:04:49.296Z,68.25
2018-03-01T09:05:49.303Z,68.72
2018-03-01T09:06:49.316Z,69.1
2018-03-01T09:08:49.349Z,68.82
2018-03-01T09:10:49.360Z,68.38
2018-03-01T09:11:49.380Z,67.91
2018-03-01T09:12:49.397Z,68.19
2018-03-01T09:13:49.408Z,67.53
2018-03-01T09:14:49.406Z,67.34
2018-03-01T09:16:49.177Z,66.58
2018-03-01T09:17:49.445Z,66.3
2018-03-01T09:18:49.471Z,66.68
2018-03-01T09:19:49.468Z,66.49
2018-03-01T09:20:49.494Z,66.68
2018-03-01T09:21:49.496Z,67.43
2018-03-01T09:22:49.511Z,66.49
2018-03-01T09:24:49.560Z,65.55
2018-03-01T09:25:49.545Z,65.73
2018-03-01T09:26:49.561Z,66.21
2018-03-01T09:27:49.571Z,66.21
2018-03-01T09:28:49.582Z,66.02
2018-03-01T09:29:49.605Z,66.21
2018-03-01T09:30:49.609Z,66.4
2018-03-01T09:31:49.659Z,66.02
2018-03-01T09:32:49.630Z,66.02
2018-03-01T09:34:04.305Z,66.21
2018-03-01T09:34:49.654Z,66.3
2018-03-01T09:35:49.686Z,66.21
2018-03-01T09:36:49.689Z,66.4
2018-03-01T09:37:49.438Z,65.83
2018-03-01T09:38:49.449Z,65.36
2018-03-01T09:39:49.725Z,65.36
2018-03-01T09:40:49.744Z,65.14
2018-03-01T09:41:49.755Z,65.33
2018-03-01T09:42:49.762Z,65.8
2018-03-01T09:43:49.519Z,65.55
2018-03-01T09:44:49.527Z,65.55
2018-03-01T09:45:49.794Z,65.83
2018-03-01T09:46:49.814Z,65.73
2018-03-01T09:47:49.817Z,65.36
2018-03-01T09:49:21.665Z,65.64
2018-03-01T09:50:04.495Z,65.73
2018-03-01T09:50:49.841Z,65.45
2018-03-01T09:51:49.852Z,66.02
2018-03-01T09:52:49.610Z,65.36
2018-03-01T09:53:49.876Z,65.17
2018-03-01T09:54:49.887Z,65.08
2018-03-01T09:55:49.902Z,64.89
2018-03-01T09:56:49.913Z,65.36
2018-03-01T09:57:49.925Z,64.61
2018-03-01T09:58:49.943Z,64.7
2018-03-01T09:59:49.950Z,64.51
2018-03-01T10:00:49.963Z,64.51
2018-03-01T10:01:49.974Z,64.79
2018-03-01T10:02:50.087Z,64.79
2018-03-01T10:03:50.001Z,64.98
2018-03-01T10:04:50.012Z,64.98
2018-03-01T10:06:04.689Z,64.7
2018-03-01T10:06:50.038Z,64.23
2018-03-01T10:07:50.050Z,64.32
2018-03-01T10:08:50.061Z,64.7
2018-03-01T10:09:50.075Z,64.14
2018-03-01T10:10:50.087Z,64.42
2018-03-01T10:11:50.099Z,64.42
2018-03-01T10:12:50.211Z,64.32
2018-03-01T10:13:50.124Z,64.32
2018-03-01T10:14:50.135Z,64.51
2018-03-01T10:15:50.148Z,64.79
2018-03-01T10:16:50.160Z,64.89
2018-03-01T10:17:50.170Z,65.45
2018-03-01T10:18:50.184Z,65.45
2018-03-01T10:19:50.206Z,65.26
2018-03-01T10:20:50.206Z,65.17
2018-03-01T10:22:04.886Z,66.02
2018-03-01T10:22:50.233Z,65.92
2018-03-01T10:23:50.243Z,65.08
2018-03-01T10:24:50.256Z,65.17
2018-03-01T10:25:50.014Z,65.7
2018-03-01T10:26:50.283Z,65.52
2018-03-01T10:27:50.291Z,66.27
2018-03-01T10:28:50.305Z,66.17
2018-03-01T10:29:50.356Z,66.46
2018-03-01T10:31:50.084Z,66.74
2018-03-01T10:32:50.351Z,66.83
2018-03-01T10:33:50.108Z,67.49
2018-03-01T10:34:50.382Z,67.4
2018-03-01T10:35:50.389Z,67.62
2018-03-01T10:37:05.122Z,67.72
2018-03-01T10:37:50.411Z,66.96
2018-03-01T10:38:50.429Z,67.15
2018-03-01T10:39:50.433Z,66.58
2018-03-01T10:40:50.445Z,66.21
2018-03-01T10:41:50.200Z,65.83
2018-03-01T10:42:50.466Z,65.45
2018-03-01T10:43:50.480Z,65.64
2018-03-01T10:44:50.529Z,65.55
2018-03-01T10:45:50.503Z,65.55
2018-03-01T10:46:50.514Z,65.73
2018-03-01T10:47:50.525Z,65.64
2018-03-01T10:48:50.536Z,66.3
2018-03-01T10:49:50.553Z,65.45
2018-03-01T10:50:50.554Z,65.64
2018-03-01T10:51:50.569Z,65.26
2018-03-01T10:52:50.323Z,65.36
2018-03-01T10:53:50.589Z,64.98
2018-03-01T10:54:50.343Z,64.89
2018-03-01T10:55:50.616Z,64.98
2018-03-01T10:56:50.622Z,65.17
2018-03-01T10:57:50.630Z,65.36
2018-03-01T10:58:50.642Z,65.36
2018-03-01T10:59:50.657Z,65.83
2018-03-01T11:00:50.663Z,65.45
2018-03-01T11:01:50.674Z,65.26
2018-03-01T11:02:50.689Z,65.26
2018-03-01T11:03:50.440Z,64.89
2018-03-01T11:04:50.450Z,64.51
2018-03-01T11:05:50.461Z,64.89
2018-03-01T11:06:50.471Z,64.89
2018-03-01T11:09:05.420Z,64.98
2018-03-01T11:09:50.503Z,65.17
2018-03-01T11:10:50.768Z,64.89
2018-03-01T11:11:50.778Z,64.98
2018-03-01T11:12:50.792Z,64.79
2018-03-01T11:13:50.801Z,64.51
2018-03-01T11:14:50.816Z,64.61
2018-03-01T11:15:50.819Z,64.32
2018-03-01T11:16:50.840Z,63.57
2018-03-01T11:17:50.841Z,63.76
2018-03-01T11:18:50.851Z,63.57
2018-03-01T11:19:50.863Z,63.76
2018-03-01T11:20:50.872Z,63.47
2018-03-01T11:21:50.887Z,63.66
2018-03-01T11:22:50.892Z,63.47
2018-03-01T11:23:50.904Z,63.66
2018-03-01T11:25:05.580Z,63.29
2018-03-01T11:25:50.923Z,63.47
2018-03-01T11:27:50.947Z,63.47
2018-03-01T11:28:50.960Z,63.66
2018-03-01T11:29:50.964Z,63.66
2018-03-01T11:30:50.976Z,62.81
2018-03-01T11:31:50.986Z,62.25
2018-03-01T11:32:50.999Z,62.53
2018-03-01T11:33:51.007Z,62.53
2018-03-01T11:34:51.081Z,62.72
2018-03-01T11:35:51.027Z,62.62
2018-03-01T11:36:51.038Z,63.19
2018-03-01T11:37:51.055Z,63
2018-03-01T11:38:51.061Z,62.72
2018-03-01T11:39:51.070Z,62.91
2018-03-01T11:41:05.746Z,62.62
2018-03-01T11:42:51.101Z,62.91
2018-03-01T11:43:51.113Z,63.66
2018-03-01T11:44:51.122Z,63.29
2018-03-01T11:45:51.137Z,63.57
2018-03-01T11:46:51.143Z,63.47
2018-03-01T11:47:51.153Z,63.1
2018-03-01T11:48:51.162Z,63.57
2018-03-01T11:49:51.177Z,62.81
2018-03-01T11:50:50.928Z,62.62
2018-03-01T11:51:51.249Z,62.43
2018-03-01T11:52:51.204Z,62.25
2018-03-01T11:53:51.215Z,62.15
2018-03-01T11:54:51.231Z,62.25
2018-03-01T11:55:51.234Z,62.25
2018-03-01T11:57:05.911Z,61.87
2018-03-01T11:57:51.259Z,62.15
2018-03-01T11:58:51.267Z,62.06
2018-03-01T11:59:51.021Z,62.25
2018-03-01T12:00:51.287Z,62.34
2018-03-01T12:01:51.305Z,62.53
2018-03-01T12:02:51.315Z,62.43
2018-03-01T12:03:51.317Z,62.43
2018-03-01T12:04:51.330Z,62.43
2018-03-01T12:05:51.341Z,62.25
2018-03-01T12:06:51.347Z,62.53
2018-03-01T12:07:51.360Z,62.25
2018-03-01T12:08:51.113Z,62.43
2018-03-01T12:09:51.380Z,61.87
2018-03-01T12:10:51.399Z,62.15
2018-03-01T12:12:06.066Z,62.34
2018-03-01T12:12:51.154Z,61.49
2018-03-01T12:14:51.181Z,61.87
2018-03-01T12:15:51.443Z,61.4
2018-03-01T12:16:51.451Z,61.11
2018-03-01T12:17:51.461Z,61.3
2018-03-01T12:18:51.473Z,61.4
2018-03-01T12:19:51.481Z,61.49
2018-03-01T12:20:51.499Z,61.77
2018-03-01T12:21:51.501Z,61.68
2018-03-01T12:22:51.513Z,61.3
2018-03-01T12:23:51.526Z,61.68
2018-03-01T12:24:51.532Z,61.68
2018-03-01T12:25:51.288Z,61.77
2018-03-01T12:27:51.567Z,61.43
2018-03-01T12:28:51.577Z,61.3
2018-03-01T12:29:51.588Z,61.21
2018-03-01T12:30:51.597Z,61.3
2018-03-01T12:31:51.604Z,61.3
2018-03-01T12:32:51.617Z,60.93
2018-03-01T12:33:51.627Z,61.4
2018-03-01T12:34:51.640Z,61.3
2018-03-01T12:35:51.390Z,61.33
2018-03-01T12:36:51.660Z,61.3
2018-03-01T12:37:51.411Z,61.4
2018-03-01T12:38:51.424Z,61.11
2018-03-01T12:39:51.690Z,61.3
2018-03-01T12:40:51.698Z,61.3
2018-03-01T12:41:51.707Z,61.24
2018-03-01T12:42:51.728Z,61.15
2018-03-01T12:44:06.399Z,61.43
2018-03-01T12:44:51.742Z,61.21
2018-03-01T12:45:51.753Z,61.15
2018-03-01T12:46:51.503Z,61.3
2018-03-01T12:47:51.768Z,61.11
2018-03-01T12:48:51.784Z,61.4
2018-03-01T12:49:51.794Z,61.11
2018-03-01T12:50:51.800Z,61.49
2018-03-01T12:51:51.556Z,61.68
2018-03-01T12:52:51.823Z,61.71
2018-03-01T12:53:51.833Z,61.33
2018-03-01T12:54:51.841Z,61.33
2018-03-01T12:55:51.856Z,61.05
2018-03-01T12:56:51.608Z,60.86
2018-03-01T12:57:51.872Z,60.77
2018-03-01T12:58:51.885Z,60.77
2018-03-01T13:00:06.558Z,61.3
2018-03-01T13:00:51.904Z,61.33
2018-03-01T13:01:51.917Z,61.71
2018-03-01T13:02:51.923Z,61.05
2018-03-01T13:03:51.935Z,61.49
2018-03-01T13:04:51.688Z,61.3
2018-03-01T13:05:51.953Z,61.4
2018-03-01T13:06:51.968Z,61.43
2018-03-01T13:07:51.981Z,61.43
2018-03-01T13:08:51.990Z,61.52
2018-03-01T13:09:51.994Z,61.33
2018-03-01T13:10:52.005Z,61.33
2018-03-01T13:11:52.016Z,61.24
2018-03-01T13:12:52.031Z,61.24
2018-03-01T13:13:52.038Z,61.3
2018-03-01T13:14:52.051Z,61.21
2018-03-01T13:16:06.722Z,61.61
2018-03-01T13:16:52.070Z,61.33
2018-03-01T13:17:51.821Z,61.61
2018-03-01T13:18:52.087Z,61.52
2018-03-01T13:19:52.097Z,61.58
2018-03-01T13:20:52.170Z,61.77
2018-03-01T13:21:52.121Z,62.34
2018-03-01T13:22:52.129Z,62.28
2018-03-01T13:23:52.139Z,62.28
2018-03-01T13:24:52.150Z,62.28
2018-03-01T13:25:52.158Z,62.18
2018-03-01T13:26:52.167Z,62.28
2018-03-01T13:27:52.180Z,62.18
2018-03-01T13:28:52.188Z,62.28
2018-03-01T13:29:52.202Z,61.9
2018-03-01T13:30:52.210Z,61.52
2018-03-01T13:32:06.886Z,61.71
2018-03-01T13:32:52.231Z,61.24
2018-03-01T13:33:52.241Z,61.15
2018-03-01T13:34:52.249Z,61.61
2018-03-01T13:35:52.261Z,61.9
2018-03-01T13:36:52.271Z,61.61
2018-03-01T13:37:52.285Z,61.8
2018-03-01T13:38:52.297Z,61.8
2018-03-01T13:39:52.304Z,61.43
2018-03-01T13:40:52.317Z,61.61
2018-03-01T13:41:52.323Z,61.15
2018-03-01T13:42:52.334Z,61.24
2018-03-01T13:43:52.342Z,61.24
2018-03-01T13:44:52.361Z,61.3
2018-03-01T13:45:52.365Z,61.4
2018-03-01T13:47:07.041Z,62.34
2018-03-01T13:47:52.389Z,61.9
2018-03-01T13:48:52.399Z,61.9